createdAt,value
2019-06-26T00:05:45.055Z,58.11
2019-06-26T00:15:45.985Z,58.21
2019-06-26T00:25:46.983Z,58.52
2019-06-26T00:35:48.061Z,58.70
2019-06-26T00:45:48.996Z,59.67
2019-06-26T00:55:50.870Z,60.21
2019-06-26T01:05:51.821Z,60.48
2019-06-26T01:15:52.761Z,60.37
2019-06-26T01:25:53.700Z,60.10
2019-06-26T01:35:54.641Z,61.59
2019-06-26T01:45:55.604Z,62.01
2019-06-26T01:55:56.528Z,63.17
2019-06-26T02:05:57.483Z,63.16
2019-06-26T02:15:58.437Z,63.12
2019-06-26T02:25:59.375Z,63.43
2019-06-26T02:36:02.520Z,63.89
2019-06-26T02:46:03.579Z,64.58
2019-06-26T02:56:04.619Z,64.19
2019-06-26T03:06:05.591Z,65.89
2019-06-26T03:16:06.545Z,65.66
2019-06-26T03:26:07.488Z,64.80
2019-06-26T03:36:08.658Z,65.04
2019-06-26T03:46:09.614Z,65.33
2019-06-26T03:56:10.553Z,64.03
2019-06-26T04:06:11.509Z,62.81
2019-06-26T04:16:12.455Z,61.77
2019-06-26T04:26:13.492Z,60.65
2019-06-26T04:36:14.455Z,58.75
2019-06-26T04:46:15.416Z,57.84
2019-06-26T04:56:16.355Z,55.82
2019-06-26T05:06:17.312Z,54.42
2019-06-26T05:16:20.405Z,53.00
2019-06-26T05:26:21.263Z,51.05
2019-06-26T05:36:22.214Z,48.17
2019-06-26T05:46:31.141Z,46.17
2019-06-26T05:56:26.110Z,37.56
2019-06-26T06:06:40.682Z,21.80
2019-06-26T06:16:43.165Z,15.96
2019-06-26T06:26:33.043Z,13.54
2019-06-26T06:36:33.986Z,11.83
2019-06-26T06:46:34.960Z,10.79
2019-06-26T06:56:36.026Z,9.67
2019-06-26T07:06:37.012Z,8.21
2019-06-26T07:16:39.344Z,7.77
2019-06-26T07:26:40.324Z,7.44
2019-06-26T07:36:41.367Z,6.74
2019-06-26T07:46:42.356Z,7.31
2019-06-26T07:56:43.339Z,6.25
2019-06-26T08:06:44.307Z,5.31
2019-06-26T08:16:45.306Z,5.77
2019-06-26T08:26:46.295Z,5.59
2019-06-26T08:36:47.295Z,5.05
2019-06-26T08:46:50.273Z,4.75
2019-06-26T08:56:51.416Z,4.95
2019-06-26T09:06:52.383Z,4.77
2019-06-26T09:16:53.330Z,4.22
2019-06-26T09:26:54.389Z,5.06
2019-06-26T09:36:55.534Z,4.44
2019-06-26T09:46:56.484Z,4.33
2019-06-26T09:56:57.503Z,3.53
2019-06-26T10:06:58.503Z,3.24
2019-06-26T10:16:59.488Z,4.19
2019-06-26T10:27:00.573Z,4.84
2019-06-26T10:37:01.713Z,5.07
2019-06-26T10:47:02.676Z,6.42
2019-06-26T10:57:03.874Z,6.55
2019-06-26T11:07:05.889Z,7.41
2019-06-26T11:17:06.851Z,13.56
2019-06-26T11:27:07.829Z,17.59
2019-06-26T11:37:08.787Z,19.45
2019-06-26T11:47:09.769Z,19.95
2019-06-26T11:57:10.735Z,21.15
2019-06-26T12:07:11.744Z,20.94
2019-06-26T12:17:12.813Z,21.23
2019-06-26T12:27:13.805Z,20.66
2019-06-26T12:37:14.778Z,20.00
2019-06-26T12:47:15.717Z,19.70
2019-06-26T12:57:16.663Z,18.70
2019-06-26T13:07:17.612Z,18.54
2019-06-26T13:17:18.805Z,16.99
2019-06-26T13:27:19.874Z,17.99
2019-06-26T13:37:20.837Z,16.16
2019-06-26T13:47:21.777Z,17.65
2019-06-26T13:57:22.728Z,17.68
2019-06-26T14:07:23.686Z,17.64
2019-06-26T14:17:25.584Z,17.39
2019-06-26T14:27:26.903Z,17.41
2019-06-26T14:37:27.843Z,17.30
2019-06-26T14:47:28.793Z,16.83
2019-06-26T14:57:29.723Z,17.04
2019-06-26T15:07:30.673Z,17.24
2019-06-26T15:17:31.679Z,17.08
2019-06-26T15:27:32.651Z,16.82
2019-06-26T15:37:33.638Z,17.45
2019-06-26T15:47:34.577Z,18.18
2019-06-26T15:57:35.528Z,18.68
2019-06-26T16:07:36.492Z,18.55
2019-06-26T16:17:39.395Z,19.39
2019-06-26T16:27:40.444Z,20.06
2019-06-26T16:37:42.078Z,20.79
2019-06-26T16:47:43.169Z,21.09
2019-06-26T16:57:44.183Z,20.78
2019-06-26T17:07:45.136Z,20.93
2019-06-26T17:17:46.109Z,21.77
2019-06-26T17:27:47.054Z,22.77
2019-06-26T17:37:48.009Z,23.44
2019-06-26T17:47:49.423Z,24.33
2019-06-26T17:57:50.541Z,25.49
2019-06-26T18:07:52.589Z,27.05
2019-06-26T18:17:53.556Z,28.38
2019-06-26T18:27:54.516Z,29.41
2019-06-26T18:37:55.497Z,30.58
2019-06-26T18:47:56.922Z,31.71
2019-06-26T18:57:57.951Z,32.88
2019-06-26T19:07:58.909Z,34.36
2019-06-26T19:17:59.948Z,35.51
2019-06-26T19:28:00.902Z,36.27
2019-06-26T19:38:02.007Z,37.26
2019-06-26T19:48:04.269Z,37.64
2019-06-26T19:58:05.199Z,37.45
2019-06-26T20:08:06.329Z,39.03
2019-06-26T20:18:07.275Z,39.88
2019-06-26T20:28:08.228Z,40.61
2019-06-26T20:38:09.190Z,41.07
2019-06-26T20:48:10.176Z,42.27
2019-06-26T20:58:11.093Z,43.07
2019-06-26T21:08:12.241Z,43.72
2019-06-26T21:18:13.176Z,44.89
2019-06-26T21:28:14.138Z,44.17
2019-06-26T21:38:18.447Z,44.40
2019-06-26T21:48:19.382Z,45.76
2019-06-26T21:58:20.326Z,47.75
2019-06-26T22:08:39.461Z,49.37
2019-06-26T22:18:42.296Z,49.46
2019-06-26T22:28:43.258Z,50.27
2019-06-26T22:38:44.220Z,51.11
2019-06-26T22:48:45.165Z,51.75
2019-06-26T22:58:46.582Z,52.94
2019-06-26T23:08:47.662Z,53.18
2019-06-26T23:18:48.609Z,54.27
2019-06-26T23:28:49.570Z,54.27
2019-06-26T23:38:50.529Z,54.76
2019-06-26T23:48:52.228Z,56.69
2019-06-26T23:58:53.215Z,56.85
